Terminal Aerodrome Forecast
Issued by NWS

Home | Current Version | Previous Version | Text Only | Print | Product List | Glossary On
Versions: 1 2 3 4 5 6 7 8 9 10 11 12 13
324
FTUS46 KSGX 222337
TAFPSP
TAF
KPSP 222337Z 2300/2324 VRB05KT P6SM SKC
     FM230100 32012G20KT P6SM SKC
     FM230600 VRB05KT P6SM SKC
     FM232300 33012G20KT P6SM SKC=

USA.gov is the U.S. government's official web portal to all federal, state and local government web resources and services.